createdAt,value
2022-11-07T00:00:43.811Z,11.93
2022-11-07T00:03:15.613Z,12.02
2022-11-07T00:05:43.811Z,12.35
2022-11-07T00:08:11.679Z,12.02
2022-11-07T00:10:39.707Z,12.15
2022-11-07T00:13:07.696Z,11.80
2022-11-07T00:15:35.769Z,12.18
2022-11-07T00:18:03.671Z,12.02
2022-11-07T00:20:33.465Z,11.93
2022-11-07T00:23:01.449Z,12.80
2022-11-07T00:25:29.334Z,11.80
2022-11-07T00:27:57.304Z,11.98
2022-11-07T00:30:25.144Z,11.68
2022-11-07T00:32:57.658Z,12.38
2022-11-07T00:35:27.843Z,12.30
2022-11-07T00:37:57.157Z,12.30
2022-11-07T00:40:25.129Z,12.85
2022-11-07T00:42:53.134Z,12.02
2022-11-07T00:45:20.997Z,12.70
2022-11-07T00:47:48.864Z,12.23
2022-11-07T00:50:16.722Z,11.90
2022-11-07T00:52:44.576Z,12.45
2022-11-07T00:55:13.767Z,12.60
2022-11-07T00:57:41.687Z,12.52
2022-11-07T01:00:11.026Z,12.88
2022-11-07T01:02:38.971Z,12.23
2022-11-07T01:05:15.901Z,12.40
2022-11-07T01:07:44.691Z,12.23
2022-11-07T01:10:14.011Z,12.70
2022-11-07T01:12:42.024Z,12.43
2022-11-07T01:15:11.332Z,12.45
2022-11-07T01:17:39.526Z,12.68
2022-11-07T01:20:08.871Z,11.85
2022-11-07T01:22:36.817Z,12.18
2022-11-07T01:25:05.133Z,11.85
2022-11-07T01:27:34.445Z,12.23
2022-11-07T01:30:02.324Z,12.55
2022-11-07T01:32:30.217Z,12.18
2022-11-07T01:34:58.193Z,12.52
2022-11-07T01:37:26.130Z,12.15
2022-11-07T01:39:54.109Z,12.35
2022-11-07T01:42:22.512Z,11.98
2022-11-07T01:44:54.069Z,11.70
2022-11-07T01:47:22.080Z,12.15
2022-11-07T01:49:49.939Z,12.07
2022-11-07T01:52:19.726Z,12.35
2022-11-07T01:54:50.289Z,11.05
2022-11-07T01:57:20.462Z,11.90
2022-11-07T01:59:48.344Z,11.50
2022-11-07T02:02:17.614Z,11.63
2022-11-07T02:04:45.631Z,11.75
2022-11-07T02:07:14.920Z,11.18
2022-11-07T02:09:44.863Z,11.27
2022-11-07T02:12:12.933Z,11.70
2022-11-07T02:14:40.934Z,11.30
2022-11-07T02:17:09.647Z,11.38
2022-11-07T02:19:41.494Z,11.57
2022-11-07T02:22:14.520Z,11.10
2022-11-07T02:24:43.818Z,11.25
2022-11-07T02:27:13.151Z,10.77
2022-11-07T02:29:41.453Z,11.27
2022-11-07T02:32:10.922Z,11.32
2022-11-07T02:34:38.920Z,10.68
2022-11-07T02:37:08.591Z,11.18
2022-11-07T02:39:36.627Z,10.70
2022-11-07T02:42:07.129Z,10.98
2022-11-07T02:44:35.362Z,10.65
2022-11-07T02:47:03.257Z,10.95
2022-11-07T02:49:31.146Z,10.30
2022-11-07T02:51:59.091Z,10.88
2022-11-07T02:54:26.939Z,10.63
2022-11-07T02:56:54.813Z,9.98
2022-11-07T02:59:26.949Z,10.02
2022-11-07T03:01:55.327Z,10.57
2022-11-07T03:04:24.189Z,9.73
2022-11-07T03:06:52.530Z,9.82
2022-11-07T03:09:20.423Z,10.30
2022-11-07T03:11:48.397Z,10.32
2022-11-07T03:14:16.573Z,9.65
2022-11-07T03:16:45.777Z,9.80
2022-11-07T03:19:13.821Z,9.88
2022-11-07T03:21:41.716Z,10.25
2022-11-07T03:24:09.723Z,9.73
2022-11-07T03:26:37.599Z,9.40
2022-11-07T03:29:06.154Z,9.57
2022-11-07T03:31:34.069Z,9.48
2022-11-07T03:34:03.450Z,9.27
2022-11-07T03:36:31.442Z,9.05
2022-11-07T03:38:59.318Z,9.43
2022-11-07T03:41:27.247Z,9.25
2022-11-07T03:43:55.511Z,9.57
2022-11-07T03:46:23.483Z,9.45
2022-11-07T03:48:51.419Z,8.93
2022-11-07T03:51:20.686Z,8.77
2022-11-07T03:53:48.556Z,8.75
2022-11-07T03:56:16.485Z,9.00
2022-11-07T03:58:44.340Z,8.95
2022-11-07T04:01:13.238Z,8.77
2022-11-07T04:03:41.482Z,8.95
2022-11-07T04:06:09.505Z,8.70
2022-11-07T04:08:38.801Z,8.80
2022-11-07T04:11:06.998Z,8.60
2022-11-07T04:13:52.375Z,8.80
2022-11-07T04:16:38.253Z,8.73
2022-11-07T04:19:06.288Z,8.43
2022-11-07T04:21:34.159Z,9.05
2022-11-07T04:24:03.440Z,8.30
2022-11-07T04:26:49.166Z,8.35
2022-11-07T04:29:17.054Z,8.18
2022-11-07T04:31:44.942Z,8.52
2022-11-07T04:34:12.787Z,8.57
2022-11-07T04:36:40.649Z,8.13
2022-11-07T04:39:10.001Z,8.98
2022-11-07T04:41:37.909Z,8.55
2022-11-07T04:44:06.217Z,8.85
2022-11-07T04:46:34.192Z,8.38
2022-11-07T04:49:02.131Z,8.60
2022-11-07T04:51:29.988Z,8.63
2022-11-07T04:53:58.460Z,8.90
2022-11-07T04:56:31.874Z,8.50
2022-11-07T04:59:02.248Z,8.50
2022-11-07T05:01:30.218Z,8.50
2022-11-07T05:03:58.274Z,8.38
2022-11-07T05:06:26.231Z,8.43
2022-11-07T05:08:54.170Z,8.38
2022-11-07T05:11:22.147Z,8.05
2022-11-07T05:13:51.442Z,8.65
2022-11-07T05:16:19.373Z,8.90
2022-11-07T05:18:47.257Z,8.30
2022-11-07T05:21:15.249Z,8.40
2022-11-07T05:23:43.174Z,8.68
2022-11-07T05:26:11.021Z,8.40
2022-11-07T05:28:39.957Z,8.52
2022-11-07T05:31:09.482Z,8.98
2022-11-07T05:33:38.782Z,8.20
2022-11-07T05:36:10.727Z,8.80
2022-11-07T05:38:38.586Z,8.40
2022-11-07T05:41:06.725Z,8.60
2022-11-07T05:43:34.669Z,8.82
2022-11-07T05:46:02.744Z,9.13
2022-11-07T05:48:31.974Z,8.60
2022-11-07T05:51:00.085Z,8.50
2022-11-07T05:53:29.126Z,8.40
2022-11-07T05:55:57.261Z,8.55
2022-11-07T05:58:25.159Z,8.27
2022-11-07T06:00:53.166Z,8.35
2022-11-07T06:03:21.580Z,8.13
2022-11-07T06:05:50.915Z,8.60
2022-11-07T06:08:18.765Z,8.20
2022-11-07T06:10:46.788Z,8.70
2022-11-07T06:13:16.620Z,8.68
2022-11-07T06:15:45.140Z,8.52
2022-11-07T06:18:14.818Z,8.32
2022-11-07T06:20:42.761Z,8.68
2022-11-07T06:23:12.327Z,8.50
2022-11-07T06:25:40.467Z,8.50
2022-11-07T06:28:10.062Z,8.60
2022-11-07T06:30:38.239Z,8.50
2022-11-07T06:33:07.687Z,9.00
2022-11-07T06:35:35.780Z,9.98
2022-11-07T06:38:04.000Z,12.05
2022-11-07T06:40:34.650Z,12.25
2022-11-07T06:43:09.067Z,13.65
2022-11-07T06:45:37.479Z,12.45
2022-11-07T06:48:05.605Z,12.30
2022-11-07T06:50:33.532Z,13.20
2022-11-07T06:53:04.618Z,13.30
2022-11-07T06:55:33.991Z,14.85
2022-11-07T06:58:02.032Z,14.82
2022-11-07T07:00:32.466Z,14.68
2022-11-07T07:03:00.637Z,13.57
2022-11-07T07:05:28.670Z,14.77
2022-11-07T07:07:56.945Z,13.80
2022-11-07T07:10:25.633Z,14.23
2022-11-07T07:12:58.798Z,14.43
2022-11-07T07:15:26.671Z,14.07
2022-11-07T07:17:54.595Z,13.43
2022-11-07T07:20:22.513Z,13.43
2022-11-07T07:22:57.863Z,13.55
2022-11-07T07:25:28.187Z,13.10
2022-11-07T07:27:57.461Z,13.05
2022-11-07T07:30:25.530Z,13.55
2022-11-07T07:32:53.420Z,13.20
2022-11-07T07:35:22.033Z,12.35
2022-11-07T07:37:52.915Z,12.48
2022-11-07T07:40:21.115Z,12.05
2022-11-07T07:42:49.448Z,12.88
2022-11-07T07:45:19.123Z,11.85
2022-11-07T07:47:47.171Z,11.65
2022-11-07T07:50:15.148Z,12.27
2022-11-07T07:52:43.809Z,12.02
2022-11-07T07:55:12.048Z,11.27
2022-11-07T07:57:41.086Z,11.13
2022-11-07T08:00:10.429Z,11.52
2022-11-07T08:02:44.400Z,11.27
2022-11-07T08:05:12.754Z,10.65
2022-11-07T08:07:46.693Z,10.98
2022-11-07T08:10:40.147Z,11.27
2022-11-07T08:13:02.590Z,11.35
2022-11-07T08:15:30.714Z,11.73
2022-11-07T08:18:03.402Z,10.52
2022-11-07T08:20:31.349Z,10.27
2022-11-07T08:23:03.049Z,10.57
2022-11-07T08:25:31.153Z,18.60
2022-11-07T08:28:02.158Z,19.77
2022-11-07T08:30:31.673Z,16.42
2022-11-07T08:33:00.791Z,15.05
2022-11-07T08:35:30.377Z,14.98
2022-11-07T08:37:59.208Z,15.27
2022-11-07T08:40:27.267Z,15.90
2022-11-07T08:43:00.155Z,14.35
2022-11-07T08:45:28.213Z,14.02
2022-11-07T08:47:59.238Z,13.63
2022-11-07T08:50:27.305Z,13.25
2022-11-07T08:53:02.203Z,14.00
2022-11-07T08:55:30.717Z,13.27
2022-11-07T08:57:59.948Z,13.52
2022-11-07T09:00:28.603Z,13.13
2022-11-07T09:03:24.284Z,13.50
2022-11-07T09:05:44.655Z,12.10
2022-11-07T09:08:13.899Z,12.57
2022-11-07T09:10:41.919Z,12.18
2022-11-07T09:13:09.909Z,12.18
2022-11-07T09:15:37.861Z,12.05
2022-11-07T09:18:06.041Z,11.98
2022-11-07T09:20:35.276Z,11.50
2022-11-07T09:23:05.063Z,11.50
2022-11-07T09:25:34.304Z,11.35
2022-11-07T09:28:05.409Z,11.55
2022-11-07T09:30:33.358Z,11.07
2022-11-07T09:33:01.351Z,11.15
2022-11-07T09:35:29.350Z,10.98
2022-11-07T09:37:57.400Z,10.48
2022-11-07T09:40:41.770Z,11.23
2022-11-07T09:43:43.389Z,10.63
2022-11-07T09:46:16.474Z,10.65
2022-11-07T09:48:45.498Z,10.77
2022-11-07T09:51:15.984Z,10.75
2022-11-07T09:53:44.880Z,10.25
2022-11-07T09:56:13.469Z,10.60
2022-11-07T09:58:44.439Z,10.25
2022-11-07T10:01:13.898Z,10.07
2022-11-07T10:03:52.904Z,10.40
2022-11-07T10:06:30.973Z,9.65
2022-11-07T10:09:04.569Z,9.75
2022-11-07T10:11:34.708Z,9.55
2022-11-07T10:14:07.994Z,10.38
2022-11-07T10:16:48.042Z,10.23
2022-11-07T10:19:30.322Z,9.50
2022-11-07T10:22:05.616Z,9.48
2022-11-07T10:24:44.426Z,9.05
2022-11-07T10:27:12.846Z,9.73
2022-11-07T10:29:45.003Z,10.02
2022-11-07T10:32:19.408Z,9.48
2022-11-07T10:34:54.002Z,8.63
2022-11-07T10:37:22.400Z,9.60
2022-11-07T10:39:50.289Z,9.07
2022-11-07T10:42:19.438Z,9.32
2022-11-07T10:44:48.689Z,9.25
2022-11-07T10:47:17.191Z,9.43
2022-11-07T10:49:54.838Z,9.05
2022-11-07T10:52:22.780Z,8.75
2022-11-07T10:54:51.125Z,8.85
2022-11-07T10:57:20.179Z,9.18
2022-11-07T10:59:58.243Z,8.68
2022-11-07T11:02:28.328Z,9.05
2022-11-07T11:04:57.745Z,8.48
2022-11-07T11:07:28.582Z,8.35
2022-11-07T11:09:57.702Z,8.68
2022-11-07T11:12:27.176Z,7.90
2022-11-07T11:15:06.690Z,8.07
2022-11-07T11:17:34.910Z,8.35
2022-11-07T11:20:03.618Z,8.00
2022-11-07T11:22:31.602Z,8.50
2022-11-07T11:25:00.336Z,8.35
2022-11-07T11:27:28.188Z,8.18
2022-11-07T11:29:58.079Z,8.20
2022-11-07T11:32:29.988Z,7.88
2022-11-07T11:35:01.702Z,7.40
2022-11-07T11:37:30.851Z,8.10
2022-11-07T11:40:09.913Z,7.90
2022-11-07T11:42:41.674Z,8.15
2022-11-07T11:45:15.669Z,7.50
2022-11-07T11:47:48.398Z,8.05
2022-11-07T11:50:17.934Z,7.63
2022-11-07T11:52:45.865Z,7.38
2022-11-07T11:55:14.733Z,7.70
2022-11-07T11:57:47.038Z,7.47
2022-11-07T12:00:15.546Z,7.47
2022-11-07T12:02:56.610Z,7.72
2022-11-07T12:05:36.218Z,7.72
2022-11-07T12:08:13.348Z,7.22
2022-11-07T12:10:43.832Z,7.38
2022-11-07T12:13:14.146Z,7.03
2022-11-07T12:15:49.802Z,7.28
2022-11-07T12:18:23.100Z,6.80
2022-11-07T12:20:58.238Z,6.63
2022-11-07T12:23:29.806Z,7.10
2022-11-07T12:26:01.542Z,6.95
2022-11-07T12:28:38.297Z,7.00
2022-11-07T12:31:13.983Z,6.80
2022-11-07T12:33:46.028Z,6.72
2022-11-07T12:36:16.067Z,6.90
2022-11-07T12:39:15.239Z,6.47
2022-11-07T12:41:45.923Z,6.18
2022-11-07T12:44:26.415Z,6.32
2022-11-07T12:46:54.916Z,6.55
2022-11-07T12:49:42.822Z,6.78
2022-11-07T12:52:24.391Z,6.80
2022-11-07T12:54:54.511Z,6.60
2022-11-07T12:57:23.003Z,6.38
2022-11-07T12:59:53.440Z,6.53
2022-11-07T13:02:30.678Z,6.40
2022-11-07T13:05:03.444Z,6.18
2022-11-07T13:07:35.017Z,6.15
2022-11-07T13:10:05.478Z,6.45
2022-11-07T13:12:36.899Z,6.00
2022-11-07T13:15:04.919Z,6.57
2022-11-07T13:17:40.804Z,5.85
2022-11-07T13:20:28.838Z,6.10
2022-11-07T13:22:57.368Z,5.95
2022-11-07T13:25:27.456Z,5.90
2022-11-07T13:28:04.575Z,5.72
2022-11-07T13:30:36.945Z,5.75
2022-11-07T13:33:05.286Z,5.75
2022-11-07T13:35:35.172Z,5.70
2022-11-07T13:38:08.715Z,5.30
2022-11-07T13:40:38.366Z,6.07
2022-11-07T13:43:11.250Z,5.57
2022-11-07T13:45:41.885Z,5.60
2022-11-07T13:48:15.619Z,5.53
2022-11-07T13:50:45.714Z,5.63
2022-11-07T13:53:17.202Z,5.90
2022-11-07T13:55:47.004Z,5.95
2022-11-07T13:58:16.330Z,5.70
2022-11-07T14:00:44.195Z,5.70
2022-11-07T14:03:23.492Z,5.50
2022-11-07T14:05:52.852Z,5.57
2022-11-07T14:08:22.856Z,5.70
2022-11-07T14:10:52.258Z,5.78
2022-11-07T14:13:23.185Z,5.80
2022-11-07T14:15:53.875Z,5.32
2022-11-07T14:18:22.324Z,5.07
2022-11-07T14:20:52.334Z,5.13
2022-11-07T14:23:22.254Z,5.43
2022-11-07T14:25:57.844Z,5.18
2022-11-07T14:28:25.862Z,5.47
2022-11-07T14:30:54.239Z,5.40
2022-11-07T14:33:22.965Z,5.45
2022-11-07T14:35:53.034Z,5.15
2022-11-07T14:38:27.076Z,5.40
2022-11-07T14:40:55.801Z,4.80
2022-11-07T14:43:25.227Z,5.15
2022-11-07T14:46:11.811Z,5.63
2022-11-07T14:48:41.335Z,5.40
2022-11-07T14:51:12.745Z,5.28
2022-11-07T14:53:43.672Z,5.28
2022-11-07T14:56:13.090Z,5.38
2022-11-07T14:58:40.999Z,5.05
2022-11-07T15:01:13.491Z,4.90
2022-11-07T15:03:52.086Z,5.00
2022-11-07T15:06:24.185Z,4.97
2022-11-07T15:08:59.284Z,5.10
2022-11-07T15:11:29.782Z,5.40
2022-11-07T15:13:57.935Z,5.10
2022-11-07T15:16:28.526Z,4.97
2022-11-07T15:18:58.922Z,4.90
2022-11-07T15:21:31.088Z,5.18
2022-11-07T15:23:59.221Z,5.30
2022-11-07T15:26:31.402Z,5.15
2022-11-07T15:29:15.771Z,5.15
2022-11-07T15:31:48.220Z,5.15
2022-11-07T15:34:33.695Z,5.03
2022-11-07T15:37:12.324Z,5.03
2022-11-07T15:39:40.310Z,5.10
2022-11-07T15:42:08.197Z,4.63
2022-11-07T15:44:36.414Z,5.25
2022-11-07T15:47:04.409Z,5.00
2022-11-07T15:49:33.982Z,4.70
2022-11-07T15:52:02.393Z,4.75
2022-11-07T15:54:31.617Z,4.38
2022-11-07T15:57:01.280Z,4.65
2022-11-07T15:59:31.624Z,5.03
2022-11-07T16:01:59.572Z,4.80
2022-11-07T16:04:27.593Z,5.00
2022-11-07T16:06:55.537Z,4.93
2022-11-07T16:09:23.489Z,4.85
2022-11-07T16:11:52.794Z,4.78
2022-11-07T16:14:42.860Z,4.65
2022-11-07T16:17:10.682Z,4.93
2022-11-07T16:19:38.575Z,4.70
2022-11-07T16:22:06.637Z,4.65
2022-11-07T16:24:34.495Z,4.55
2022-11-07T16:27:03.813Z,4.57
2022-11-07T16:29:31.728Z,4.50
2022-11-07T16:31:59.959Z,4.30
2022-11-07T16:34:28.054Z,4.70
2022-11-07T16:36:56.002Z,4.65
2022-11-07T16:39:24.108Z,4.00
2022-11-07T16:41:52.014Z,4.35
2022-11-07T16:44:26.243Z,4.45
2022-11-07T16:46:55.694Z,4.30
2022-11-07T16:49:26.232Z,4.40
2022-11-07T16:51:54.218Z,4.13
2022-11-07T16:54:22.154Z,4.57
2022-11-07T16:56:51.293Z,4.30
2022-11-07T16:59:22.370Z,4.40
2022-11-07T17:01:50.637Z,4.22
2022-11-07T17:04:18.804Z,4.30
2022-11-07T17:06:47.626Z,4.60
2022-11-07T17:09:16.994Z,4.35
2022-11-07T17:11:45.168Z,4.10
2022-11-07T17:14:13.071Z,4.28
2022-11-07T17:16:42.580Z,4.55
2022-11-07T17:19:11.141Z,4.05
2022-11-07T17:21:43.664Z,4.63
2022-11-07T17:24:11.624Z,4.35
2022-11-07T17:26:39.750Z,4.40
2022-11-07T17:29:08.404Z,4.45
2022-11-07T17:31:36.288Z,4.43
2022-11-07T17:34:06.141Z,4.15
2022-11-07T17:36:37.587Z,4.50
2022-11-07T17:39:07.972Z,4.57
2022-11-07T17:41:36.017Z,4.50
2022-11-07T17:44:04.065Z,4.38
2022-11-07T17:46:33.065Z,4.05
2022-11-07T17:49:01.778Z,4.57
2022-11-07T17:51:31.165Z,5.60
2022-11-07T17:53:59.276Z,5.75
2022-11-07T17:56:27.948Z,5.35
2022-11-07T17:58:57.142Z,5.10
2022-11-07T18:01:26.277Z,4.70
2022-11-07T18:03:54.639Z,4.93
2022-11-07T18:06:23.515Z,4.75
2022-11-07T18:08:53.287Z,4.82
2022-11-07T18:11:21.501Z,5.18
2022-11-07T18:13:50.943Z,4.47
2022-11-07T18:16:19.793Z,4.88
2022-11-07T18:18:47.721Z,5.05
2022-11-07T18:21:15.602Z,4.72
2022-11-07T18:23:43.500Z,4.40
2022-11-07T18:26:13.708Z,4.63
2022-11-07T18:28:42.640Z,5.38
2022-11-07T18:31:11.261Z,5.00
2022-11-07T18:33:39.398Z,4.75
2022-11-07T18:36:08.754Z,4.47
2022-11-07T18:38:36.703Z,4.90
2022-11-07T18:41:06.039Z,4.60
2022-11-07T18:43:36.021Z,4.40
2022-11-07T18:46:04.161Z,4.22
2022-11-07T18:48:32.498Z,4.90
2022-11-07T18:51:00.833Z,4.70
2022-11-07T18:53:29.147Z,4.47
2022-11-07T18:55:57.769Z,4.60
2022-11-07T18:58:25.736Z,4.68
2022-11-07T19:00:55.125Z,4.68
2022-11-07T19:03:23.145Z,4.55
2022-11-07T19:05:51.557Z,5.03
2022-11-07T19:08:19.704Z,4.60
2022-11-07T19:10:47.691Z,4.70
2022-11-07T19:13:15.615Z,4.40
2022-11-07T19:15:43.631Z,4.60
2022-11-07T19:18:12.974Z,4.70
2022-11-07T19:20:40.933Z,4.57
2022-11-07T19:23:08.943Z,4.65
2022-11-07T19:25:39.598Z,4.70
2022-11-07T19:28:07.493Z,4.30
2022-11-07T19:30:35.816Z,4.53
2022-11-07T19:33:03.838Z,4.45
2022-11-07T19:35:33.160Z,4.70
2022-11-07T19:38:06.260Z,4.60
2022-11-07T19:40:37.122Z,4.50
2022-11-07T19:43:05.424Z,4.65
2022-11-07T19:45:33.421Z,4.80
2022-11-07T19:48:01.322Z,4.07
2022-11-07T19:50:29.230Z,4.43
2022-11-07T19:52:58.512Z,4.20
2022-11-07T19:55:26.434Z,4.40
2022-11-07T19:57:54.370Z,4.63
2022-11-07T20:00:25.912Z,4.40
2022-11-07T20:02:53.903Z,4.40
2022-11-07T20:05:24.862Z,4.38
2022-11-07T20:07:55.288Z,4.30
2022-11-07T20:10:26.385Z,4.80
2022-11-07T20:12:54.823Z,4.60
2022-11-07T20:15:22.807Z,4.22
2022-11-07T20:17:50.917Z,4.50
2022-11-07T20:20:18.884Z,4.32
2022-11-07T20:22:47.460Z,4.57
2022-11-07T20:25:15.342Z,4.80
2022-11-07T20:27:44.760Z,4.53
2022-11-07T20:30:13.770Z,4.28
2022-11-07T20:32:41.685Z,4.47
2022-11-07T20:35:09.667Z,4.45
2022-11-07T20:37:37.651Z,4.07
2022-11-07T20:40:06.357Z,4.60
2022-11-07T20:42:34.237Z,4.45
2022-11-07T20:45:03.544Z,4.60
2022-11-07T20:47:31.424Z,4.80
2022-11-07T20:49:59.305Z,4.68
2022-11-07T20:52:27.269Z,4.45
2022-11-07T20:54:55.617Z,4.53
2022-11-07T20:57:25.164Z,4.75
2022-11-07T20:59:53.048Z,4.55
2022-11-07T21:02:23.599Z,4.50
2022-11-07T21:05:16.339Z,4.80
2022-11-07T21:07:39.670Z,4.40
2022-11-07T21:10:08.104Z,4.47
2022-11-07T21:12:36.005Z,4.70
2022-11-07T21:15:04.322Z,4.40
2022-11-07T21:17:33.585Z,4.20
2022-11-07T21:20:01.495Z,4.50
2022-11-07T21:22:29.784Z,4.55
2022-11-07T21:24:57.768Z,4.55
2022-11-07T21:27:25.689Z,4.70
2022-11-07T21:29:53.625Z,4.50
2022-11-07T21:32:21.501Z,4.30
2022-11-07T21:34:50.751Z,4.72
2022-11-07T21:37:18.612Z,4.45
2022-11-07T21:39:46.723Z,4.60
2022-11-07T21:42:14.704Z,4.70
2022-11-07T21:44:42.600Z,4.88
2022-11-07T21:47:10.478Z,4.43
2022-11-07T21:49:38.404Z,4.63
2022-11-07T21:52:07.734Z,4.60
2022-11-07T21:54:35.620Z,4.75
2022-11-07T21:57:03.725Z,4.63
2022-11-07T21:59:31.738Z,4.97
2022-11-07T22:01:59.750Z,4.75
2022-11-07T22:04:27.700Z,5.10
2022-11-07T22:06:55.631Z,5.20
2022-11-07T22:09:24.866Z,5.30
2022-11-07T22:11:52.720Z,4.57
2022-11-07T22:14:21.799Z,4.78
2022-11-07T22:16:49.781Z,5.07
2022-11-07T22:19:17.873Z,4.90
2022-11-07T22:21:45.773Z,5.00
2022-11-07T22:24:13.643Z,4.95
2022-11-07T22:26:43.152Z,5.18
2022-11-07T22:29:10.999Z,4.70
2022-11-07T22:31:38.897Z,5.65
2022-11-07T22:34:06.792Z,4.70
2022-11-07T22:36:34.909Z,4.97
2022-11-07T22:39:02.854Z,5.10
2022-11-07T22:41:30.723Z,5.60
2022-11-07T22:43:59.994Z,5.15
2022-11-07T22:46:28.553Z,5.22
2022-11-07T22:48:56.797Z,5.25
2022-11-07T22:51:25.620Z,5.10
2022-11-07T22:53:57.182Z,5.05
2022-11-07T22:56:25.083Z,5.10
2022-11-07T22:58:53.032Z,5.00
2022-11-07T23:01:23.425Z,4.78
2022-11-07T23:03:51.783Z,5.10
2022-11-07T23:06:19.923Z,4.82
2022-11-07T23:08:47.999Z,4.97
2022-11-07T23:14:06.055Z,5.25
2022-11-07T23:16:35.966Z,4.70
2022-11-07T23:19:04.838Z,4.97
2022-11-07T23:21:32.954Z,4.97
2022-11-07T23:24:01.062Z,4.80
2022-11-07T23:26:34.084Z,5.30
2022-11-07T23:29:09.060Z,5.45
2022-11-07T23:31:40.238Z,4.85
2022-11-07T23:34:08.592Z,5.00
2022-11-07T23:36:36.617Z,5.00
2022-11-07T23:39:05.708Z,4.97
2022-11-07T23:41:33.704Z,5.00
2022-11-07T23:44:01.673Z,4.90
2022-11-07T23:46:47.364Z,4.68
2022-11-07T23:49:34.143Z,5.00
2022-11-07T23:52:02.067Z,5.20
2022-11-07T23:54:47.611Z,4.88
2022-11-07T23:57:15.714Z,5.10
